Main page
METAR-TAF:

METAR-TAF

Airports :

Hong Kong International Airport

Hong Kong, China

latitude: 22-19N, longitude: 113-55E, elevation: 9 m

Current weather observation

The report was made 35 minutes ago, at 00:00 UTC
Wind 10 kt from the Northeast
Temperature 12°C
Humidity 44%
Pressure 1028 hPa
Visibility 10 km or more
no clouds below 1500 m and no cumulonimbus

METAR: VHHH 180000Z 04010KT CAVOK 12/00 Q1028 NOSIG

Time: 08:35 (00:35 UTC)

Forecast

The report was made 1 hour and 35 minutes ago, at 23:00 UTC
Forecast valid from 18 at 00 UTC to 19 at 06 UTC
Wind 10 kt from the North/Northeast
Visibility 10 km or more
no clouds below 1500 m and no cumulonimbus
Temporary
from 18 at 03 UTC to 18 at 09 UTC
Wind 10 kt from the West/Northwest
Becoming
from 18 at 09 UTC to 18 at 11 UTC
Wind 10 kt from the East

TAF: VHHH 172300Z 1800/1906 03010KT CAVOK TX17/1806Z TX18/1906Z TN13/1823Z TEMPO 1803/1809 30010KT BECMG 1809/1811 09010KT

Weather observations and forecasts of more than 4000 airports (METAR and TAF reports).

The available stations are represented by yellow and red dots on the map.

Hover mouse over dot to see the name of the station.

Then click to see weather observations and forecasts.

To change the map : click on the green buttons with a black cross to zoom in, on the green button with a dash to zoom out, or on the green arrows for adjacent maps.


METAR-TAF: